Middletown, Indiana
Current Conditions -  °F | °C
As of 7:53 AM on Friday 31 Oct 2014 (Local Time) from KMIE Reporting Station
Overcast Overcast  
Wind Chill: 39°   Ceiling: 7000
Heat Index: 43°   Visibility: 10mi
Dew Point: 37°   Wind: 6mph
Humidity: 80%   Direction: 260°W
Pressure: 29.96"   Gusts: NA
Location:  40.06°N, 85.54°W
Report Text: KMIE 311153Z 26005KT 10SM SCT055 OVC070 06/03 A2996 RMK AO2 SLP145 T00610028 10072 20056 58007
Loading
Personal Weather Stations






























Interactive Weather Map
Tropical Storm Tracking
New forecast layout! Learn more

10-Day Weather Forecast

Advertisements
Track Severe Weather on mobile